createdAt,value
2023-08-14T00:00:42.416Z,14.24
2023-08-14T00:03:08.944Z,14.21
2023-08-14T00:05:35.607Z,14.21
2023-08-14T00:08:02.041Z,14.19
2023-08-14T00:10:28.517Z,14.19
2023-08-14T00:12:54.964Z,14.17
2023-08-14T00:15:21.707Z,14.13
2023-08-14T00:17:48.234Z,14.10
2023-08-14T00:20:14.726Z,14.05
2023-08-14T00:22:41.249Z,14.02
2023-08-14T00:25:08.149Z,14.01
2023-08-14T00:27:34.595Z,14.03
2023-08-14T00:30:02.374Z,14.04
2023-08-14T00:32:28.825Z,14.03
2023-08-14T00:34:55.268Z,14.00
2023-08-14T00:37:24.020Z,13.99
2023-08-14T00:39:50.439Z,14.00
2023-08-14T00:42:17.017Z,13.99
2023-08-14T00:44:43.619Z,14.01
2023-08-14T00:47:10.132Z,14.04
2023-08-14T00:49:36.607Z,14.05
2023-08-14T00:52:03.249Z,14.05
2023-08-14T00:54:29.914Z,14.03
2023-08-14T00:56:56.501Z,14.02
2023-08-14T00:59:23.199Z,14.02
2023-08-14T01:01:49.692Z,14.01
2023-08-14T01:04:16.191Z,14.03
2023-08-14T01:06:43.479Z,14.02
2023-08-14T01:09:10.923Z,14.03
2023-08-14T01:11:49.015Z,13.99
2023-08-14T01:14:29.813Z,13.97
2023-08-14T01:17:02.424Z,13.95
2023-08-14T01:19:40.738Z,13.95
2023-08-14T01:22:34.797Z,13.94
2023-08-14T01:25:20.479Z,13.93
2023-08-14T01:27:47.366Z,13.90
2023-08-14T01:30:13.832Z,13.89
2023-08-14T01:32:40.295Z,13.95
2023-08-14T01:35:07.673Z,13.97
2023-08-14T01:37:43.634Z,13.95
2023-08-14T01:40:43.966Z,13.93
2023-08-14T01:43:15.809Z,13.89
2023-08-14T01:45:42.462Z,13.86
2023-08-14T01:48:11.007Z,13.84
2023-08-14T01:50:39.557Z,13.81
2023-08-14T01:53:07.597Z,13.79
2023-08-14T01:55:34.308Z,13.74
2023-08-14T01:58:01.470Z,13.68
2023-08-14T02:00:30.317Z,13.67
2023-08-14T02:02:58.480Z,13.65
2023-08-14T02:05:24.992Z,13.60
2023-08-14T02:07:51.427Z,13.50
2023-08-14T02:10:17.964Z,13.45
2023-08-14T02:12:44.411Z,13.42
2023-08-14T02:15:10.989Z,13.41
2023-08-14T02:17:37.537Z,13.39
2023-08-14T02:20:04.449Z,13.39
2023-08-14T02:22:30.905Z,13.42
2023-08-14T02:24:57.401Z,13.43
2023-08-14T02:27:23.895Z,13.40
2023-08-14T02:29:50.302Z,13.38
2023-08-14T02:32:17.116Z,13.34
2023-08-14T02:34:44.954Z,13.35
2023-08-14T02:37:12.672Z,13.33
2023-08-14T02:39:39.343Z,13.31
2023-08-14T02:42:05.939Z,13.28
2023-08-14T02:44:32.507Z,13.28
2023-08-14T02:46:59.621Z,13.30
2023-08-14T02:49:26.323Z,13.28
2023-08-14T02:51:53.500Z,13.28
2023-08-14T02:54:20.042Z,13.24
2023-08-14T02:56:47.287Z,13.20
2023-08-14T02:59:13.763Z,13.17
2023-08-14T03:01:40.282Z,13.14
2023-08-14T03:04:06.925Z,13.10
2023-08-14T03:06:33.586Z,13.10
2023-08-14T03:09:00.310Z,13.08
2023-08-14T03:11:27.197Z,13.07
2023-08-14T03:13:54.014Z,13.03
2023-08-14T03:16:20.584Z,13.02
2023-08-14T03:18:47.118Z,13.01
2023-08-14T03:21:13.794Z,12.99
2023-08-14T03:23:40.220Z,12.97
2023-08-14T03:26:06.924Z,12.95
2023-08-14T03:28:33.395Z,12.95
2023-08-14T03:30:59.814Z,12.90
2023-08-14T03:33:26.280Z,12.85
2023-08-14T03:35:55.906Z,12.82
2023-08-14T03:38:22.845Z,12.83
2023-08-14T03:40:49.281Z,12.82
2023-08-14T03:43:15.783Z,12.80
2023-08-14T03:45:42.205Z,12.76
2023-08-14T03:48:08.725Z,12.70
2023-08-14T03:50:35.242Z,12.66
2023-08-14T03:53:01.701Z,12.62
2023-08-14T03:55:28.131Z,12.63
2023-08-14T03:57:55.675Z,12.64
2023-08-14T04:00:22.170Z,12.66
2023-08-14T04:02:48.786Z,12.68
2023-08-14T04:05:16.041Z,12.72
2023-08-14T04:07:42.479Z,12.74
2023-08-14T04:10:09.027Z,12.74
2023-08-14T04:12:35.599Z,12.76
2023-08-14T04:15:17.961Z,12.80
2023-08-14T04:17:44.909Z,12.85
2023-08-14T04:20:12.209Z,12.90
2023-08-14T04:22:38.826Z,12.91
2023-08-14T04:25:05.838Z,12.93
2023-08-14T04:27:32.797Z,12.96
2023-08-14T04:29:59.230Z,12.98
2023-08-14T04:32:25.774Z,13.04
2023-08-14T04:34:52.281Z,13.15
2023-08-14T04:37:18.747Z,13.17
2023-08-14T04:39:45.220Z,13.27
2023-08-14T04:42:11.704Z,13.40
2023-08-14T04:44:38.164Z,13.41
2023-08-14T04:47:04.772Z,13.52
2023-08-14T04:49:31.293Z,13.80
2023-08-14T04:51:57.737Z,13.98
2023-08-14T04:54:24.279Z,14.12
2023-08-14T04:56:50.770Z,14.30
2023-08-14T04:59:17.605Z,14.61
2023-08-14T05:01:44.147Z,14.98
2023-08-14T05:04:10.756Z,15.13
2023-08-14T05:06:37.350Z,15.48
2023-08-14T05:09:16.077Z,15.54
2023-08-14T05:11:47.178Z,15.48
2023-08-14T05:14:13.774Z,15.56
2023-08-14T05:16:40.272Z,15.36
2023-08-14T05:19:06.783Z,15.22
2023-08-14T05:21:33.245Z,15.22
2023-08-14T05:23:59.673Z,15.25
2023-08-14T05:26:28.636Z,15.36
2023-08-14T05:28:55.216Z,15.52
2023-08-14T05:31:21.850Z,15.85
2023-08-14T05:33:48.312Z,15.85
2023-08-14T05:36:14.813Z,15.77
2023-08-14T05:38:41.291Z,15.68
2023-08-14T05:41:07.730Z,15.71
2023-08-14T05:43:34.119Z,15.75
2023-08-14T05:46:00.763Z,15.87
2023-08-14T05:48:27.274Z,15.90
2023-08-14T05:50:53.750Z,15.99
2023-08-14T05:53:20.276Z,15.99
2023-08-14T05:55:46.965Z,15.88
2023-08-14T05:58:13.386Z,15.87
2023-08-14T06:00:40.215Z,15.85
2023-08-14T06:03:07.228Z,15.89
2023-08-14T06:05:35.444Z,15.91
2023-08-14T06:08:02.888Z,15.95
2023-08-14T06:10:29.321Z,15.98
2023-08-14T06:12:55.760Z,16.03
2023-08-14T06:15:22.456Z,16.06
2023-08-14T06:17:49.950Z,16.13
2023-08-14T06:20:16.935Z,16.17
2023-08-14T06:22:45.088Z,16.23
2023-08-14T06:25:13.019Z,16.30
2023-08-14T06:27:40.099Z,16.44
2023-08-14T06:30:10.179Z,16.67
2023-08-14T06:32:37.580Z,17.18
2023-08-14T06:35:05.076Z,17.95
2023-08-14T06:37:32.087Z,18.47
2023-08-14T06:39:58.856Z,18.26
2023-08-14T06:42:25.473Z,18.58
2023-08-14T06:44:52.013Z,19.44
2023-08-14T06:47:18.506Z,19.77
2023-08-14T06:49:44.933Z,20.25
2023-08-14T06:52:11.452Z,20.24
2023-08-14T06:54:37.959Z,19.96
2023-08-14T06:57:04.772Z,20.36
2023-08-14T06:59:31.976Z,20.46
2023-08-14T07:01:58.522Z,21.86
2023-08-14T07:04:25.009Z,22.49
2023-08-14T07:06:51.430Z,22.42
2023-08-14T07:09:18.019Z,22.72
2023-08-14T07:11:44.752Z,22.61
2023-08-14T07:14:11.298Z,22.55
2023-08-14T07:16:37.933Z,22.33
2023-08-14T07:19:04.871Z,22.44
2023-08-14T07:21:32.344Z,22.94
2023-08-14T07:23:58.774Z,23.26
2023-08-14T07:26:25.248Z,23.59
2023-08-14T07:28:51.685Z,23.64
2023-08-14T07:31:18.371Z,23.14
2023-08-14T07:33:44.872Z,23.42
2023-08-14T07:36:11.319Z,24.82
2023-08-14T07:38:37.852Z,25.94
2023-08-14T07:41:04.333Z,26.89
2023-08-14T07:43:30.743Z,26.92
2023-08-14T07:45:57.322Z,26.12
2023-08-14T07:48:23.926Z,24.99
2023-08-14T07:50:54.511Z,24.61
2023-08-14T07:53:21.379Z,24.83
2023-08-14T07:55:50.768Z,24.46
2023-08-14T07:58:19.207Z,24.34
2023-08-14T08:00:46.584Z,24.39
2023-08-14T08:03:13.157Z,24.44
2023-08-14T08:05:39.685Z,24.34
2023-08-14T08:08:06.696Z,24.45
2023-08-14T08:10:33.650Z,24.34
2023-08-14T08:13:00.131Z,24.35
2023-08-14T08:15:26.642Z,24.35
2023-08-14T08:17:53.263Z,24.16
2023-08-14T08:20:19.883Z,24.24
2023-08-14T08:22:46.361Z,24.31
2023-08-14T08:25:12.799Z,24.23
2023-08-14T08:27:39.254Z,24.07
2023-08-14T08:30:06.290Z,24.17
2023-08-14T08:32:32.821Z,24.15
2023-08-14T08:34:59.491Z,24.22
2023-08-14T08:37:26.038Z,23.94
2023-08-14T08:39:53.982Z,23.84
2023-08-14T08:42:21.251Z,24.13
2023-08-14T08:44:50.692Z,24.38
2023-08-14T08:47:23.057Z,24.49
2023-08-14T08:49:49.807Z,24.55
2023-08-14T08:52:16.982Z,24.59
2023-08-14T08:54:44.022Z,24.48
2023-08-14T08:57:12.032Z,24.74
2023-08-14T08:59:40.942Z,24.90
2023-08-14T09:02:09.208Z,25.07
2023-08-14T09:04:35.989Z,25.18
2023-08-14T09:07:02.540Z,25.36
2023-08-14T09:09:29.023Z,24.92
2023-08-14T09:11:55.450Z,24.86
2023-08-14T09:14:23.485Z,25.15
2023-08-14T09:16:54.587Z,25.09
2023-08-14T09:19:21.513Z,25.12
2023-08-14T09:21:48.211Z,25.07
2023-08-14T09:24:15.987Z,25.29
2023-08-14T09:26:44.593Z,25.38
2023-08-14T09:29:14.307Z,25.26
2023-08-14T09:31:45.003Z,25.28
2023-08-14T09:34:19.011Z,25.52
2023-08-14T09:36:46.078Z,25.32
2023-08-14T09:39:13.374Z,25.44
2023-08-14T09:41:39.925Z,25.70
2023-08-14T09:44:06.486Z,25.48
2023-08-14T09:46:33.084Z,25.16
2023-08-14T09:48:59.611Z,25.26
2023-08-14T09:51:26.136Z,25.38
2023-08-14T09:53:59.914Z,25.52
2023-08-14T09:56:26.894Z,25.73
2023-08-14T09:58:56.471Z,25.86
2023-08-14T10:01:23.346Z,25.56
2023-08-14T10:03:54.773Z,25.25
2023-08-14T10:06:25.778Z,25.47
2023-08-14T10:08:58.727Z,25.56
2023-08-14T10:11:29.399Z,25.50
2023-08-14T10:14:01.372Z,25.41
2023-08-14T10:16:40.938Z,25.48
2023-08-14T10:19:13.955Z,25.97
2023-08-14T10:21:43.895Z,26.23
2023-08-14T10:24:12.919Z,26.27
2023-08-14T10:26:39.473Z,26.40
2023-08-14T10:29:06.634Z,26.47
2023-08-14T10:31:34.182Z,26.68
2023-08-14T10:34:01.317Z,26.56
2023-08-14T10:36:29.168Z,26.52
2023-08-14T10:39:03.187Z,26.56
2023-08-14T10:41:35.291Z,26.55
2023-08-14T10:44:09.052Z,26.75
2023-08-14T10:46:38.151Z,26.65
2023-08-14T10:49:04.986Z,26.49
2023-08-14T10:51:33.078Z,26.44
2023-08-14T10:54:14.890Z,26.13
2023-08-14T10:56:47.543Z,25.95
2023-08-14T10:59:23.724Z,25.98
2023-08-14T11:01:53.333Z,25.72
2023-08-14T11:04:20.209Z,25.54
2023-08-14T11:07:02.751Z,25.76
2023-08-14T11:09:35.719Z,25.94
2023-08-14T11:12:07.898Z,26.49
2023-08-14T11:14:40.079Z,26.74
2023-08-14T11:17:08.229Z,26.75
2023-08-14T11:19:36.387Z,26.67
2023-08-14T11:22:06.149Z,26.58
2023-08-14T11:24:38.026Z,26.83
2023-08-14T11:27:04.965Z,26.94
2023-08-14T11:29:33.055Z,27.10
2023-08-14T11:32:01.578Z,27.30
2023-08-14T11:34:28.687Z,27.32
2023-08-14T11:37:07.235Z,27.23
2023-08-14T11:39:35.717Z,27.33
2023-08-14T11:42:04.089Z,27.32
2023-08-14T11:44:30.642Z,27.29
2023-08-14T11:46:57.681Z,27.49
2023-08-14T11:49:25.116Z,27.54
2023-08-14T11:51:54.046Z,27.55
2023-08-14T11:54:20.876Z,27.54
2023-08-14T11:56:48.873Z,27.72
2023-08-14T11:59:17.812Z,27.69
2023-08-14T12:01:44.551Z,27.72
2023-08-14T12:04:11.675Z,27.76
2023-08-14T12:06:38.197Z,27.94
2023-08-14T12:09:09.074Z,27.93
2023-08-14T12:11:38.132Z,27.99
2023-08-14T12:14:06.605Z,27.80
2023-08-14T12:16:33.141Z,27.85
2023-08-14T12:18:59.621Z,28.04
2023-08-14T12:21:29.806Z,27.84
2023-08-14T12:23:56.561Z,27.68
2023-08-14T12:26:23.651Z,27.77
2023-08-14T12:28:50.118Z,27.34
2023-08-14T12:31:16.647Z,27.26
2023-08-14T12:33:45.279Z,27.30
2023-08-14T12:36:13.541Z,27.44
2023-08-14T12:38:40.043Z,27.70
2023-08-14T12:41:06.876Z,27.42
2023-08-14T12:43:39.009Z,27.58
2023-08-14T12:46:10.075Z,27.64
2023-08-14T12:48:36.644Z,27.55
2023-08-14T12:51:04.616Z,27.17
2023-08-14T12:53:31.066Z,26.97
2023-08-14T12:56:03.507Z,27.41
2023-08-14T12:58:30.823Z,27.88
2023-08-14T13:00:57.285Z,28.19
2023-08-14T13:03:35.126Z,28.35
2023-08-14T13:06:03.770Z,28.24
2023-08-14T13:08:30.447Z,28.12
2023-08-14T13:10:56.999Z,28.24
2023-08-14T13:13:25.167Z,28.34
2023-08-14T13:15:52.110Z,28.50
2023-08-14T13:18:18.593Z,28.53
2023-08-14T13:20:45.110Z,28.54
2023-08-14T13:23:11.563Z,28.62
2023-08-14T13:25:42.303Z,28.48
2023-08-14T13:28:09.476Z,28.18
2023-08-14T13:30:35.942Z,28.24
2023-08-14T13:33:02.476Z,28.26
2023-08-14T13:35:28.982Z,28.25
2023-08-14T13:37:55.471Z,28.47
2023-08-14T13:40:21.917Z,28.50
2023-08-14T13:42:48.400Z,27.92
2023-08-14T13:45:18.807Z,27.78
2023-08-14T13:47:53.711Z,27.95
2023-08-14T13:50:32.748Z,27.99
2023-08-14T13:53:00.935Z,28.14
2023-08-14T13:55:34.160Z,28.22
2023-08-14T13:58:01.999Z,28.11
2023-08-14T14:00:30.363Z,28.26
2023-08-14T14:02:58.684Z,28.49
2023-08-14T14:05:25.963Z,28.59
2023-08-14T14:07:55.664Z,28.36
2023-08-14T14:10:23.918Z,28.57
2023-08-14T14:15:20.026Z,28.78
2023-08-14T14:17:46.483Z,28.83
2023-08-14T14:20:13.059Z,28.92
2023-08-14T14:22:39.558Z,28.61
2023-08-14T14:25:06.676Z,28.67
2023-08-14T14:27:33.234Z,28.61
2023-08-14T14:29:59.778Z,28.66
2023-08-14T14:32:28.737Z,28.55
2023-08-14T14:34:55.193Z,28.25
2023-08-14T14:37:21.758Z,28.20
2023-08-14T14:39:48.175Z,28.00
2023-08-14T14:42:14.717Z,28.19
2023-08-14T14:44:41.304Z,28.58
2023-08-14T14:47:07.830Z,28.94
2023-08-14T14:49:34.398Z,29.28
2023-08-14T14:52:02.586Z,29.24
2023-08-14T14:54:29.144Z,29.05
2023-08-14T14:56:55.623Z,29.13
2023-08-14T14:59:22.874Z,29.00
2023-08-14T15:01:49.316Z,29.26
2023-08-14T15:04:15.822Z,29.38
2023-08-14T15:06:43.000Z,29.28
2023-08-14T15:09:11.938Z,28.94
2023-08-14T15:11:38.401Z,28.57
2023-08-14T15:14:05.082Z,28.30
2023-08-14T15:16:33.478Z,28.38
2023-08-14T15:19:00.180Z,28.78
2023-08-14T15:21:26.690Z,29.07
2023-08-14T15:23:53.166Z,28.87
2023-08-14T15:26:20.700Z,28.67
2023-08-14T15:28:47.181Z,28.90
2023-08-14T15:31:13.945Z,29.31
2023-08-14T15:33:40.527Z,29.52
2023-08-14T15:36:07.096Z,29.70
2023-08-14T15:38:33.736Z,29.60
2023-08-14T15:41:00.573Z,29.54
2023-08-14T15:43:27.258Z,29.65
2023-08-14T15:46:04.357Z,29.73
2023-08-14T15:48:30.928Z,29.58
2023-08-14T15:50:57.404Z,29.62
2023-08-14T15:53:23.889Z,29.64
2023-08-14T15:55:50.424Z,29.54
2023-08-14T15:58:16.987Z,29.79
2023-08-14T16:00:45.073Z,29.81
2023-08-14T16:03:12.165Z,29.84
2023-08-14T16:05:39.011Z,29.96
2023-08-14T16:08:06.447Z,29.98
2023-08-14T16:10:32.968Z,30.16
2023-08-14T16:12:59.584Z,30.31
2023-08-14T16:15:26.057Z,30.20
2023-08-14T16:17:52.581Z,30.22
2023-08-14T16:20:19.081Z,30.28
2023-08-14T16:22:45.672Z,30.33
2023-08-14T16:25:12.296Z,30.33
2023-08-14T16:27:38.873Z,29.69
2023-08-14T16:30:05.825Z,29.75
2023-08-14T16:32:32.363Z,29.91
2023-08-14T16:34:59.598Z,29.94
2023-08-14T16:37:26.043Z,30.04
2023-08-14T16:39:52.494Z,30.04
2023-08-14T16:42:19.029Z,29.92
2023-08-14T16:44:45.802Z,29.94
2023-08-14T16:47:12.246Z,29.87
2023-08-14T16:49:38.706Z,29.75
2023-08-14T16:52:05.538Z,29.73
2023-08-14T16:54:31.961Z,29.83
2023-08-14T16:56:58.408Z,29.91
2023-08-14T16:59:25.604Z,29.83
2023-08-14T17:01:52.096Z,29.36
2023-08-14T17:04:19.061Z,29.24
2023-08-14T17:06:45.537Z,29.09
2023-08-14T17:09:14.474Z,28.89
2023-08-14T17:11:41.323Z,28.66
2023-08-14T17:14:07.872Z,28.44
2023-08-14T17:16:34.405Z,28.18
2023-08-14T17:19:00.960Z,28.00
2023-08-14T17:21:27.476Z,27.87
2023-08-14T17:23:54.123Z,27.70
2023-08-14T17:26:20.565Z,27.57
2023-08-14T17:28:47.077Z,27.38
2023-08-14T17:31:13.617Z,27.26
2023-08-14T17:33:40.040Z,27.17
2023-08-14T17:36:06.507Z,27.09
2023-08-14T17:38:32.991Z,27.02
2023-08-14T17:40:59.440Z,26.95
2023-08-14T17:43:25.943Z,26.85
2023-08-14T17:45:53.204Z,26.70
2023-08-14T17:48:20.434Z,26.60
2023-08-14T17:50:51.717Z,26.54
2023-08-14T17:53:20.599Z,26.48
2023-08-14T17:55:47.292Z,26.38
2023-08-14T17:58:13.782Z,26.24
2023-08-14T18:00:47.184Z,26.16
2023-08-14T18:03:14.137Z,26.08
2023-08-14T18:05:40.660Z,26.00
2023-08-14T18:08:07.315Z,25.92
2023-08-14T18:10:33.782Z,25.80
2023-08-14T18:13:00.242Z,25.56
2023-08-14T18:15:26.720Z,25.51
2023-08-14T18:17:53.310Z,25.47
2023-08-14T18:20:19.955Z,25.38
2023-08-14T18:22:46.512Z,25.27
2023-08-14T18:25:12.968Z,25.08
2023-08-14T18:27:39.437Z,24.80
2023-08-14T18:30:06.496Z,24.74
2023-08-14T18:32:32.998Z,24.66
2023-08-14T18:34:59.593Z,24.42
2023-08-14T18:37:26.631Z,24.34
2023-08-14T18:39:53.096Z,24.18
2023-08-14T18:42:19.533Z,23.99
2023-08-14T18:44:46.082Z,23.70
2023-08-14T18:47:12.527Z,23.71
2023-08-14T18:49:44.212Z,23.67
2023-08-14T18:52:10.709Z,23.57
2023-08-14T18:54:37.143Z,23.44
2023-08-14T18:57:03.610Z,23.33
2023-08-14T18:59:30.445Z,23.22
2023-08-14T19:01:56.950Z,23.12
2023-08-14T19:04:40.680Z,22.90
2023-08-14T19:07:08.759Z,22.80
2023-08-14T19:09:36.654Z,22.73
2023-08-14T19:12:04.562Z,22.66
2023-08-14T19:14:30.995Z,22.48
2023-08-14T19:16:57.471Z,22.44
2023-08-14T19:19:23.959Z,22.39
2023-08-14T19:21:50.414Z,22.28
2023-08-14T19:24:16.985Z,22.21
2023-08-14T19:26:43.501Z,22.16
2023-08-14T19:29:09.989Z,22.01
2023-08-14T19:31:36.461Z,21.94
2023-08-14T19:34:03.931Z,21.84
2023-08-14T19:36:30.718Z,21.67
2023-08-14T19:38:58.113Z,21.56
2023-08-14T19:41:25.641Z,21.54
2023-08-14T19:43:52.228Z,21.44
2023-08-14T19:46:18.841Z,21.24
2023-08-14T19:48:45.471Z,21.09
2023-08-14T19:51:12.307Z,21.00
2023-08-14T19:53:38.760Z,20.96
2023-08-14T19:56:05.333Z,20.75
2023-08-14T19:58:32.379Z,20.51
2023-08-14T20:00:59.693Z,20.45
2023-08-14T20:03:26.685Z,20.49
2023-08-14T20:05:53.261Z,20.49
2023-08-14T20:08:24.549Z,20.50
2023-08-14T20:10:51.511Z,20.48
2023-08-14T20:13:17.996Z,20.45
2023-08-14T20:15:46.043Z,20.40
2023-08-14T20:18:14.164Z,20.37
2023-08-14T20:20:41.599Z,20.33
2023-08-14T20:23:10.382Z,20.21
2023-08-14T20:25:38.145Z,20.16
2023-08-14T20:28:06.342Z,20.15
2023-08-14T20:30:39.335Z,20.05
2023-08-14T20:33:05.972Z,19.93
2023-08-14T20:35:39.463Z,19.83
2023-08-14T20:38:05.964Z,19.83
2023-08-14T20:40:32.422Z,19.86
2023-08-14T20:42:58.861Z,19.80
2023-08-14T20:45:25.261Z,19.72
2023-08-14T20:47:52.168Z,19.67
2023-08-14T20:50:18.695Z,19.63
2023-08-14T20:52:45.155Z,19.59
2023-08-14T20:55:11.841Z,19.48
2023-08-14T20:57:38.247Z,19.44
2023-08-14T21:00:05.054Z,19.29
2023-08-14T21:02:31.530Z,19.25
2023-08-14T21:04:58.074Z,19.20
2023-08-14T21:07:24.511Z,19.21
2023-08-14T21:09:51.245Z,19.20
2023-08-14T21:12:17.715Z,19.17
2023-08-14T21:14:44.214Z,19.10
2023-08-14T21:17:10.656Z,19.07
2023-08-14T21:19:37.133Z,19.05
2023-08-14T21:22:03.698Z,19.00
2023-08-14T21:24:31.189Z,18.93
2023-08-14T21:26:57.673Z,18.94
2023-08-14T21:29:24.083Z,18.92
2023-08-14T21:31:50.569Z,18.89
2023-08-14T21:34:17.347Z,18.88
2023-08-14T21:36:44.354Z,18.85
2023-08-14T21:39:11.196Z,18.77
2023-08-14T21:41:37.854Z,18.76
2023-08-14T21:44:04.625Z,18.72
2023-08-14T21:46:33.639Z,18.67
2023-08-14T21:49:01.685Z,18.58
2023-08-14T21:51:28.242Z,18.52
2023-08-14T21:53:54.835Z,18.49
2023-08-14T21:56:21.292Z,18.46
2023-08-14T21:58:47.749Z,18.41
2023-08-14T22:01:14.302Z,18.32
2023-08-14T22:03:40.780Z,18.30
2023-08-14T22:06:07.214Z,18.34
2023-08-14T22:08:33.649Z,18.36
2023-08-14T22:11:02.334Z,18.36
2023-08-14T22:13:28.771Z,18.33
2023-08-14T22:15:55.577Z,18.34
2023-08-14T22:18:22.243Z,18.34
2023-08-14T22:20:53.828Z,18.33
2023-08-14T22:23:22.785Z,18.33
2023-08-14T22:25:49.713Z,18.33
2023-08-14T22:28:16.218Z,18.33
2023-08-14T22:30:44.248Z,18.32
2023-08-14T22:33:11.402Z,18.24
2023-08-14T22:35:37.939Z,18.20
2023-08-14T22:38:04.704Z,18.16
2023-08-14T22:40:31.179Z,18.18
2023-08-14T22:42:57.616Z,18.18
2023-08-14T22:45:25.299Z,18.20
2023-08-14T22:47:52.021Z,18.19
2023-08-14T22:50:18.516Z,18.17
2023-08-14T22:52:45.058Z,18.13
2023-08-14T22:55:11.603Z,18.14
2023-08-14T22:57:38.061Z,18.14
2023-08-14T23:00:05.039Z,18.13
2023-08-14T23:02:31.477Z,18.13
2023-08-14T23:04:57.950Z,18.13
2023-08-14T23:07:24.478Z,18.13
2023-08-14T23:09:51.038Z,18.14
2023-08-14T23:12:17.445Z,18.15
2023-08-14T23:14:43.874Z,18.17
2023-08-14T23:17:10.290Z,18.17
2023-08-14T23:19:36.717Z,18.17
2023-08-14T23:22:03.182Z,18.16
2023-08-14T23:24:29.653Z,18.15
2023-08-14T23:26:56.143Z,18.14
2023-08-14T23:29:22.586Z,18.17
2023-08-14T23:31:49.084Z,18.12
2023-08-14T23:34:15.603Z,17.93
2023-08-14T23:36:42.121Z,17.86
2023-08-14T23:39:09.095Z,17.86
2023-08-14T23:41:36.087Z,17.85
2023-08-14T23:44:07.950Z,17.86
2023-08-14T23:46:34.422Z,17.89
2023-08-14T23:49:00.846Z,17.83
2023-08-14T23:51:27.334Z,17.87
2023-08-14T23:53:53.820Z,17.86
2023-08-14T23:56:20.315Z,17.80
2023-08-14T23:58:47.596Z,17.82
